createdAt,value
2019-01-06T00:00:58.266Z,27.53
2019-01-06T00:01:51.504Z,20.87
2019-01-06T00:02:49.231Z,19.50
2019-01-06T00:03:44.277Z,17.13
2019-01-06T00:04:44.125Z,34.03
2019-01-06T00:05:37.578Z,26.80
2019-01-06T00:06:32.639Z,19.27
2019-01-06T00:07:30.637Z,15.23
2019-01-06T00:08:31.498Z,20.73
2019-01-06T00:09:29.739Z,21.17
2019-01-06T00:10:22.859Z,20.57
2019-01-06T00:11:26.900Z,11.73
2019-01-06T00:12:40.054Z,9.83
2019-01-06T00:13:35.148Z,7.87
2019-01-06T00:14:28.635Z,22.27
2019-01-06T00:15:35.503Z,19.63
2019-01-06T00:16:28.869Z,13.20
2019-01-06T00:17:22.247Z,6.63
2019-01-06T00:18:15.212Z,11.07
2019-01-06T00:19:08.614Z,11.13
2019-01-06T00:20:02.067Z,22.33
2019-01-06T00:20:55.571Z,6.10
2019-01-06T00:21:48.676Z,13.10
2019-01-06T00:23:01.465Z,11.90
2019-01-06T00:23:54.617Z,8.70
2019-01-06T00:24:55.485Z,7.67
2019-01-06T00:26:02.149Z,10.10
2019-01-06T00:26:57.187Z,6.13
2019-01-06T00:27:55.204Z,11.10
2019-01-06T00:28:55.885Z,14.07
2019-01-06T00:29:53.561Z,7.90
2019-01-06T00:30:47.419Z,15.10
2019-01-06T00:31:42.988Z,21.60
2019-01-06T00:32:41.455Z,8.50
2019-01-06T00:33:32.972Z,16.67
2019-01-06T00:34:37.212Z,14.30
2019-01-06T00:35:30.682Z,9.13
2019-01-06T00:36:25.282Z,11.20
2019-01-06T00:37:20.454Z,10.33
2019-01-06T00:38:18.257Z,8.60
2019-01-06T00:39:05.096Z,9.77
2019-01-06T00:40:00.208Z,9.47
2019-01-06T00:40:53.438Z,13.70
2019-01-06T00:41:48.691Z,10.00
2019-01-06T00:42:46.201Z,22.57
2019-01-06T00:43:39.327Z,11.93
2019-01-06T00:44:31.235Z,15.57
2019-01-06T00:45:24.710Z,11.50
2019-01-06T00:46:31.917Z,10.53
2019-01-06T00:47:26.924Z,16.37
2019-01-06T00:48:23.521Z,10.10
2019-01-06T00:49:16.753Z,14.47
2019-01-06T00:50:10.015Z,7.57
2019-01-06T00:51:03.417Z,11.07
2019-01-06T00:51:56.944Z,26.00
2019-01-06T00:53:10.152Z,10.10
2019-01-06T00:54:04.291Z,18.30
2019-01-06T00:55:17.459Z,9.60
2019-01-06T00:56:12.533Z,8.27
2019-01-06T00:57:16.409Z,10.27
2019-01-06T00:58:14.350Z,13.33
2019-01-06T00:59:15.741Z,12.63
2019-01-06T01:00:08.983Z,6.53
2019-01-06T01:01:09.910Z,6.70
2019-01-06T01:02:03.258Z,12.07
2019-01-06T01:03:16.425Z,10.50
2019-01-06T01:04:09.739Z,9.73
2019-01-06T01:05:07.467Z,10.53
2019-01-06T01:06:00.634Z,13.57
2019-01-06T01:06:58.351Z,15.53
2019-01-06T01:07:48.422Z,17.13
2019-01-06T01:08:43.567Z,18.83
2019-01-06T01:09:57.451Z,9.87
2019-01-06T01:10:50.678Z,19.10
2019-01-06T01:11:48.836Z,12.30
2019-01-06T01:12:55.645Z,7.07
2019-01-06T01:13:56.734Z,9.60
2019-01-06T01:15:04.006Z,13.97
2019-01-06T01:16:02.010Z,10.87
2019-01-06T01:17:00.028Z,15.03
2019-01-06T01:17:52.974Z,13.80
2019-01-06T01:18:46.168Z,12.60
2019-01-06T01:19:39.443Z,9.97
2019-01-06T01:20:34.386Z,9.87
2019-01-06T01:21:47.287Z,11.53
2019-01-06T01:22:48.431Z,9.07
2019-01-06T01:23:41.745Z,11.90
2019-01-06T01:24:42.895Z,14.43
2019-01-06T01:25:35.210Z,12.67
2019-01-06T01:26:26.783Z,12.93
2019-01-06T01:27:21.772Z,21.90
2019-01-06T01:28:22.527Z,11.77
2019-01-06T01:29:17.519Z,11.83
2019-01-06T01:30:12.533Z,13.23
2019-01-06T01:31:13.354Z,10.73
2019-01-06T01:32:05.350Z,18.77
2019-01-06T01:33:04.543Z,12.40
2019-01-06T01:34:15.062Z,12.20
2019-01-06T01:35:08.495Z,11.60
2019-01-06T01:36:01.794Z,13.10
2019-01-06T01:37:02.938Z,26.10
2019-01-06T01:37:56.317Z,13.90
2019-01-06T01:38:49.528Z,20.10
2019-01-06T01:39:50.355Z,14.50
2019-01-06T01:40:40.755Z,19.90
2019-01-06T01:41:35.861Z,12.33
2019-01-06T01:42:30.888Z,10.80
2019-01-06T01:43:24.207Z,9.90
2019-01-06T01:44:25.137Z,10.70
2019-01-06T01:45:35.058Z,13.33
2019-01-06T01:46:46.186Z,13.73
2019-01-06T01:47:47.353Z,13.83
2019-01-06T01:48:48.098Z,7.80
2019-01-06T01:49:42.304Z,8.00
2019-01-06T01:50:55.566Z,12.83
2019-01-06T01:51:56.573Z,16.43
2019-01-06T01:53:06.761Z,16.20
2019-01-06T01:54:04.731Z,12.80
2019-01-06T01:55:12.021Z,14.40
2019-01-06T01:56:10.555Z,16.60
2019-01-06T01:57:17.080Z,12.63
2019-01-06T01:58:10.490Z,8.20
2019-01-06T01:59:17.280Z,14.23
2019-01-06T02:00:10.618Z,10.93
2019-01-06T02:01:05.206Z,11.77
2019-01-06T02:01:59.364Z,23.10
2019-01-06T02:03:12.152Z,27.77
2019-01-06T02:04:00.619Z,12.40
2019-01-06T02:05:13.532Z,9.27
2019-01-06T02:06:06.839Z,12.23
2019-01-06T02:06:56.188Z,13.63
2019-01-06T02:07:59.008Z,13.30
2019-01-06T02:09:12.069Z,13.97
2019-01-06T02:10:25.238Z,21.20
2019-01-06T02:11:20.258Z,13.43
2019-01-06T02:12:33.314Z,24.40
2019-01-06T02:13:27.062Z,12.33
2019-01-06T02:14:27.710Z,13.30
2019-01-06T02:15:34.888Z,11.63
2019-01-06T02:16:28.419Z,21.97
2019-01-06T02:17:22.555Z,13.43
2019-01-06T02:18:15.701Z,12.67
2019-01-06T02:19:13.508Z,19.57
2019-01-06T02:20:06.843Z,20.17
2019-01-06T02:21:02.063Z,15.77
2019-01-06T02:22:00.215Z,13.40
2019-01-06T02:23:07.053Z,17.03
2019-01-06T02:23:55.919Z,16.10
2019-01-06T02:24:50.781Z,18.77
2019-01-06T02:25:51.469Z,14.27
2019-01-06T02:26:48.936Z,22.90
2019-01-06T02:27:42.183Z,33.17
2019-01-06T02:28:43.002Z,13.63
2019-01-06T02:29:36.776Z,13.90
2019-01-06T02:30:29.881Z,26.10
2019-01-06T02:31:37.925Z,11.60
2019-01-06T02:32:38.927Z,25.40
2019-01-06T02:33:39.891Z,18.40
2019-01-06T02:34:40.676Z,21.23
2019-01-06T02:35:41.637Z,13.50
2019-01-06T02:36:34.854Z,18.30
2019-01-06T02:37:32.598Z,17.77
2019-01-06T02:38:24.410Z,17.03
2019-01-06T02:39:25.154Z,14.83
2019-01-06T02:40:32.097Z,24.63
2019-01-06T02:41:25.123Z,13.40
2019-01-06T02:42:18.687Z,18.17
2019-01-06T02:43:31.799Z,15.47
2019-01-06T02:44:29.662Z,13.60
2019-01-06T02:45:24.977Z,17.43
2019-01-06T02:46:28.690Z,18.87
2019-01-06T02:47:29.481Z,17.00
2019-01-06T02:48:22.957Z,22.80
2019-01-06T02:49:23.588Z,14.57
2019-01-06T02:50:12.046Z,15.83
2019-01-06T02:51:19.195Z,14.60
2019-01-06T02:52:12.565Z,14.83
2019-01-06T02:53:07.616Z,15.20
2019-01-06T02:54:14.529Z,17.37
2019-01-06T02:55:08.025Z,19.10
2019-01-06T02:56:01.555Z,18.17
2019-01-06T02:56:56.662Z,17.33
2019-01-06T02:57:49.827Z,13.63
2019-01-06T02:58:42.856Z,16.73
2019-01-06T02:59:40.730Z,16.23
2019-01-06T03:00:47.821Z,21.90
2019-01-06T03:01:41.347Z,15.60
2019-01-06T03:02:36.371Z,13.20
2019-01-06T03:03:37.907Z,12.47
2019-01-06T03:04:44.031Z,13.00
2019-01-06T03:05:37.381Z,14.67
2019-01-06T03:06:30.371Z,20.03
2019-01-06T03:07:23.675Z,14.33
2019-01-06T03:08:21.365Z,19.43
2019-01-06T03:09:16.392Z,18.03
2019-01-06T03:10:09.341Z,17.67
2019-01-06T03:11:04.436Z,15.43
2019-01-06T03:11:57.383Z,13.63
2019-01-06T03:13:07.224Z,11.63
2019-01-06T03:14:04.910Z,13.27
2019-01-06T03:14:58.166Z,18.67
2019-01-06T03:15:52.817Z,16.43
2019-01-06T03:16:56.808Z,17.93
2019-01-06T03:17:54.658Z,25.87
2019-01-06T03:18:47.226Z,19.20
2019-01-06T03:19:31.430Z,13.10
2019-01-06T03:20:41.768Z,20.90
2019-01-06T03:21:45.791Z,15.37
2019-01-06T03:22:50.301Z,14.43
2019-01-06T03:23:43.479Z,16.47
2019-01-06T03:24:36.877Z,12.47
2019-01-06T03:25:40.794Z,34.13
2019-01-06T03:26:38.976Z,35.33
2019-01-06T03:27:46.064Z,15.13
2019-01-06T03:28:36.886Z,19.23
2019-01-06T03:29:28.174Z,19.47
2019-01-06T03:30:21.382Z,24.30
2019-01-06T03:31:19.086Z,21.10
2019-01-06T03:32:16.616Z,20.17
2019-01-06T03:33:10.178Z,23.13
2019-01-06T03:34:03.713Z,21.63
2019-01-06T03:35:04.513Z,23.57
2019-01-06T03:36:14.341Z,20.00
2019-01-06T03:37:07.430Z,23.97
2019-01-06T03:38:05.382Z,14.67
2019-01-06T03:38:59.161Z,26.57
2019-01-06T03:39:52.632Z,34.73
2019-01-06T03:40:45.739Z,20.00
2019-01-06T03:41:38.977Z,21.10
2019-01-06T03:42:49.487Z,22.60
2019-01-06T03:43:47.417Z,19.87
2019-01-06T03:44:54.275Z,22.70
2019-01-06T03:46:01.967Z,27.40
2019-01-06T03:47:00.247Z,22.00
2019-01-06T03:47:49.173Z,24.20
2019-01-06T03:48:42.435Z,20.23
2019-01-06T03:49:46.108Z,24.17
2019-01-06T03:50:39.446Z,25.27
2019-01-06T03:51:46.479Z,16.10
2019-01-06T03:52:39.577Z,40.60
2019-01-06T03:53:33.011Z,25.60
2019-01-06T03:54:26.394Z,17.77
2019-01-06T03:55:21.425Z,19.20
2019-01-06T03:56:22.572Z,17.73
2019-01-06T03:57:23.426Z,16.73
2019-01-06T03:58:18.424Z,21.87
2019-01-06T03:59:11.471Z,20.53
2019-01-06T04:00:00.950Z,23.63
2019-01-06T04:01:04.109Z,21.40
2019-01-06T04:02:08.111Z,20.67
2019-01-06T04:02:54.531Z,22.10
2019-01-06T04:03:55.392Z,24.70
2019-01-06T04:04:45.767Z,30.57
2019-01-06T04:05:39.469Z,26.53
2019-01-06T04:06:37.348Z,18.80
2019-01-06T04:07:35.219Z,26.07
2019-01-06T04:08:42.555Z,27.20
2019-01-06T04:09:43.251Z,18.53
2019-01-06T04:10:36.347Z,21.97
2019-01-06T04:11:33.992Z,21.60
2019-01-06T04:12:27.355Z,20.70
2019-01-06T04:13:20.878Z,30.30
2019-01-06T04:14:14.245Z,28.23
2019-01-06T04:15:09.241Z,22.00
2019-01-06T04:16:16.286Z,42.10
2019-01-06T04:17:09.805Z,29.20
2019-01-06T04:18:07.434Z,34.60
2019-01-06T04:19:08.497Z,39.37
2019-01-06T04:20:12.112Z,30.97
2019-01-06T04:21:19.098Z,26.97
2019-01-06T04:22:17.088Z,32.50
2019-01-06T04:23:10.263Z,29.70
2019-01-06T04:24:17.212Z,34.47
2019-01-06T04:25:27.222Z,34.83
2019-01-06T04:26:20.735Z,37.33
2019-01-06T04:27:27.623Z,29.30
2019-01-06T04:28:40.608Z,37.23
2019-01-06T04:29:49.413Z,40.30
2019-01-06T04:30:49.741Z,30.23
2019-01-06T04:31:44.746Z,24.87
2019-01-06T04:32:48.661Z,15.53
2019-01-06T04:33:50.178Z,9.77
2019-01-06T04:34:51.402Z,13.53
2019-01-06T04:35:43.819Z,14.90
2019-01-06T04:36:41.405Z,11.40
2019-01-06T04:37:34.659Z,14.40
2019-01-06T04:38:35.648Z,10.80
2019-01-06T04:39:29.134Z,10.40
2019-01-06T04:40:33.007Z,10.83
2019-01-06T04:41:42.722Z,6.77
2019-01-06T04:42:55.654Z,7.47
2019-01-06T04:43:53.582Z,12.83
2019-01-06T04:45:00.461Z,7.93
2019-01-06T04:45:58.387Z,9.63
2019-01-06T04:46:53.273Z,8.03
2019-01-06T04:47:48.294Z,11.73
2019-01-06T04:48:53.854Z,12.23
2019-01-06T04:49:43.784Z,10.50
2019-01-06T04:50:34.337Z,11.03
2019-01-06T04:51:27.376Z,10.20
2019-01-06T04:52:25.335Z,7.97
2019-01-06T04:53:25.091Z,10.10
2019-01-06T04:54:26.322Z,13.80
2019-01-06T04:55:19.511Z,11.27
2019-01-06T04:56:13.036Z,8.37
2019-01-06T04:57:08.084Z,7.63
2019-01-06T04:58:12.123Z,10.03
2019-01-06T04:59:09.784Z,8.03
2019-01-06T05:00:02.989Z,6.70
2019-01-06T05:01:03.829Z,6.77
2019-01-06T05:01:58.855Z,6.37
2019-01-06T05:03:08.625Z,5.33
2019-01-06T05:04:12.283Z,5.47
2019-01-06T05:05:13.216Z,6.83
2019-01-06T05:06:06.358Z,8.50
2019-01-06T05:07:04.139Z,6.20
2019-01-06T05:07:57.456Z,8.07
2019-01-06T05:09:01.768Z,9.13
2019-01-06T05:09:55.643Z,15.93
2019-01-06T05:10:48.823Z,5.10
2019-01-06T05:11:42.272Z,5.47
2019-01-06T05:12:45.976Z,5.17
2019-01-06T05:13:40.066Z,8.00
2019-01-06T05:14:40.522Z,7.37
2019-01-06T05:15:38.128Z,6.60
2019-01-06T05:16:38.941Z,6.17
2019-01-06T05:17:32.479Z,7.10
2019-01-06T05:18:42.441Z,6.77
2019-01-06T05:19:35.611Z,6.93
2019-01-06T05:20:28.787Z,4.77
2019-01-06T05:21:22.017Z,6.80
2019-01-06T05:22:15.768Z,5.00
2019-01-06T05:23:09.547Z,8.47
2019-01-06T05:24:02.881Z,5.10
2019-01-06T05:25:00.511Z,5.77
2019-01-06T05:25:55.561Z,6.17
2019-01-06T05:26:48.804Z,5.20
2019-01-06T05:27:42.185Z,4.80
2019-01-06T05:28:34.956Z,5.77
2019-01-06T05:29:36.195Z,5.43
2019-01-06T05:30:43.177Z,4.70
2019-01-06T05:31:36.620Z,6.83
2019-01-06T05:32:31.700Z,8.33
2019-01-06T05:33:35.755Z,6.40
2019-01-06T05:34:48.766Z,5.77
2019-01-06T05:35:46.466Z,12.17
2019-01-06T05:36:41.106Z,6.20
2019-01-06T05:37:33.258Z,7.00
2019-01-06T05:38:34.143Z,5.80
2019-01-06T05:39:26.052Z,7.20
2019-01-06T05:40:26.695Z,5.30
2019-01-06T05:41:21.843Z,5.63
2019-01-06T05:42:15.588Z,6.47
2019-01-06T05:43:09.723Z,6.00
2019-01-06T05:44:20.266Z,9.77
2019-01-06T05:45:13.843Z,9.17
2019-01-06T05:46:07.403Z,8.63
2019-01-06T05:47:18.518Z,9.33
2019-01-06T05:48:25.742Z,8.63
2019-01-06T05:49:23.901Z,12.27
2019-01-06T05:50:15.283Z,16.50
2019-01-06T05:51:01.033Z,14.27
2019-01-06T05:52:11.512Z,19.33
2019-01-06T05:53:18.547Z,15.60
2019-01-06T05:54:16.722Z,12.10
2019-01-06T05:55:09.865Z,12.27
2019-01-06T05:56:05.059Z,14.10
2019-01-06T05:57:12.471Z,18.83
2019-01-06T05:58:08.428Z,20.33
2019-01-06T05:59:01.713Z,17.70
2019-01-06T06:00:02.724Z,16.73
2019-01-06T06:01:00.529Z,13.97
2019-01-06T06:02:01.579Z,16.23
2019-01-06T06:02:51.075Z,19.40
2019-01-06T06:03:55.149Z,14.50
2019-01-06T06:04:56.026Z,14.50
2019-01-06T06:05:49.373Z,16.83
2019-01-06T06:06:42.725Z,15.90
2019-01-06T06:07:36.269Z,13.00
2019-01-06T06:08:29.328Z,16.87
2019-01-06T06:09:33.509Z,14.03
2019-01-06T06:10:40.393Z,16.20
2019-01-06T06:11:38.188Z,19.93
2019-01-06T06:12:31.755Z,15.60
2019-01-06T06:13:21.126Z,12.63
2019-01-06T06:14:16.149Z,13.80
2019-01-06T06:15:23.234Z,14.67
2019-01-06T06:16:23.787Z,18.40
2019-01-06T06:17:24.190Z,16.90
2019-01-06T06:18:37.602Z,13.40
2019-01-06T06:19:47.488Z,12.00
2019-01-06T06:20:57.330Z,17.67
2019-01-06T06:21:52.404Z,24.90
2019-01-06T06:22:50.869Z,19.67
2019-01-06T06:23:49.362Z,19.20
2019-01-06T06:24:43.572Z,20.30
2019-01-06T06:25:36.931Z,17.53
2019-01-06T06:26:31.897Z,12.30
2019-01-06T06:27:20.982Z,15.93
2019-01-06T06:28:12.752Z,18.10
2019-01-06T06:29:17.958Z,21.90
2019-01-06T06:30:11.055Z,21.53
2019-01-06T06:31:21.530Z,21.17
2019-01-06T06:32:16.491Z,15.83
2019-01-06T06:33:09.787Z,14.50
2019-01-06T06:34:04.731Z,13.37
2019-01-06T06:34:57.656Z,14.37
2019-01-06T06:35:55.631Z,19.97
2019-01-06T06:36:48.755Z,13.30
2019-01-06T06:37:46.592Z,13.80
2019-01-06T06:38:41.109Z,15.57
2019-01-06T06:39:30.019Z,13.77
2019-01-06T06:40:23.439Z,12.53
2019-01-06T06:41:33.415Z,13.10
2019-01-06T06:42:28.970Z,19.93
2019-01-06T06:43:26.583Z,12.03
2019-01-06T06:44:33.747Z,14.17
2019-01-06T06:45:27.427Z,19.23
2019-01-06T06:46:19.237Z,17.73
2019-01-06T06:47:16.807Z,12.00
2019-01-06T06:48:11.884Z,21.13
2019-01-06T06:49:09.524Z,20.20
2019-01-06T06:50:02.829Z,22.40
2019-01-06T06:51:09.568Z,16.77
2019-01-06T06:52:19.807Z,25.17
2019-01-06T06:53:18.781Z,16.33
2019-01-06T06:54:25.006Z,19.83
2019-01-06T06:55:28.838Z,24.63
2019-01-06T06:56:22.426Z,16.53
2019-01-06T06:57:51.960Z,16.63
2019-01-06T06:58:58.551Z,16.73
2019-01-06T06:59:51.923Z,20.50
2019-01-06T07:00:56.641Z,13.50
2019-01-06T07:02:27.933Z,15.60
2019-01-06T07:03:46.638Z,11.13
2019-01-06T07:04:40.600Z,14.20
2019-01-06T07:05:35.589Z,14.80
2019-01-06T07:06:26.650Z,15.73
2019-01-06T07:07:21.730Z,13.10
2019-01-06T07:08:31.308Z,13.87
2019-01-06T07:09:32.295Z,7.20
2019-01-06T07:10:45.594Z,7.63
2019-01-06T07:11:38.926Z,7.50
2019-01-06T07:12:45.600Z,12.93
2019-01-06T07:13:49.513Z,19.10
2019-01-06T07:14:53.803Z,15.90
2019-01-06T07:15:57.612Z,11.60
2019-01-06T07:17:24.939Z,9.97
2019-01-06T07:18:25.858Z,14.10
2019-01-06T07:19:26.934Z,11.67
2019-01-06T07:20:22.273Z,13.43
2019-01-06T07:21:20.208Z,15.23
2019-01-06T07:22:26.966Z,14.23
2019-01-06T07:23:20.358Z,11.10
2019-01-06T07:24:13.413Z,10.80
2019-01-06T07:25:14.273Z,15.73
2019-01-06T07:26:07.475Z,9.97
2019-01-06T07:27:00.896Z,13.57
2019-01-06T07:28:01.611Z,12.53
2019-01-06T07:28:58.278Z,10.53
2019-01-06T07:29:51.238Z,9.70
2019-01-06T07:30:44.299Z,7.20
2019-01-06T07:31:51.802Z,9.77
2019-01-06T07:32:55.686Z,7.53
2019-01-06T07:34:02.554Z,7.67
2019-01-06T07:34:55.695Z,8.90
2019-01-06T07:36:08.831Z,15.47
2019-01-06T07:37:02.096Z,10.63
2019-01-06T07:38:00.284Z,9.53
2019-01-06T07:39:10.118Z,7.87
2019-01-06T07:40:03.515Z,8.40
2019-01-06T07:40:56.643Z,7.97
2019-01-06T07:41:54.599Z,11.63
2019-01-06T07:42:49.452Z,14.57
2019-01-06T07:43:53.592Z,7.00
2019-01-06T07:44:48.741Z,6.90
2019-01-06T07:45:51.953Z,9.10
2019-01-06T07:46:45.673Z,14.47
2019-01-06T07:47:39.225Z,6.53
2019-01-06T07:48:40.213Z,8.17
2019-01-06T07:49:33.375Z,12.63
2019-01-06T07:50:28.422Z,8.63
2019-01-06T07:51:23.433Z,7.80
2019-01-06T07:52:18.498Z,7.23
2019-01-06T07:53:12.194Z,13.10
2019-01-06T07:54:15.800Z,10.90
2019-01-06T07:55:19.591Z,9.97
2019-01-06T07:56:14.732Z,13.43
2019-01-06T07:57:08.317Z,10.63
2019-01-06T07:57:56.861Z,10.60
2019-01-06T07:58:51.853Z,11.43
2019-01-06T07:59:47.024Z,6.50
2019-01-06T08:00:44.653Z,6.93
2019-01-06T08:01:39.687Z,6.80
2019-01-06T08:02:40.464Z,10.57
2019-01-06T08:03:35.022Z,11.00
2019-01-06T08:04:44.742Z,6.53
2019-01-06T08:05:38.111Z,6.17
2019-01-06T08:06:31.752Z,5.27
2019-01-06T08:07:36.941Z,7.37
2019-01-06T08:08:30.254Z,6.30
2019-01-06T08:09:25.251Z,6.77
2019-01-06T08:10:26.040Z,5.50
2019-01-06T08:11:10.074Z,7.93
2019-01-06T08:12:05.222Z,13.80
2019-01-06T08:12:54.953Z,7.03
2019-01-06T08:13:49.939Z,8.93
2019-01-06T08:14:59.112Z,7.23
2019-01-06T08:15:46.995Z,6.87
2019-01-06T08:16:53.714Z,9.43
2019-01-06T08:17:57.122Z,7.73
2019-01-06T08:18:52.715Z,5.93
2019-01-06T08:19:49.293Z,11.77
2019-01-06T08:20:59.013Z,6.50
2019-01-06T08:22:11.756Z,7.73
2019-01-06T08:23:09.342Z,10.80
2019-01-06T08:24:02.659Z,7.30
2019-01-06T08:25:00.246Z,6.67
2019-01-06T08:26:13.303Z,11.33
2019-01-06T08:27:11.061Z,10.47
2019-01-06T08:28:06.059Z,8.07
2019-01-06T08:29:13.214Z,7.57
2019-01-06T08:30:20.038Z,8.93
2019-01-06T08:31:13.210Z,11.43
2019-01-06T08:32:10.840Z,8.70
2019-01-06T08:33:04.458Z,8.60
2019-01-06T08:34:02.251Z,9.90
2019-01-06T08:35:03.582Z,13.63
2019-01-06T08:36:13.750Z,8.83
2019-01-06T08:37:07.102Z,7.40
2019-01-06T08:38:00.416Z,8.13
2019-01-06T08:38:53.738Z,7.27
2019-01-06T08:39:57.685Z,6.30
2019-01-06T08:40:51.766Z,10.63
2019-01-06T08:41:56.095Z,7.43
2019-01-06T08:42:51.137Z,10.00
2019-01-06T08:43:54.191Z,6.93
2019-01-06T08:44:47.761Z,11.80
2019-01-06T08:45:41.101Z,18.00
2019-01-06T08:46:39.129Z,8.27
2019-01-06T08:47:44.259Z,10.30
2019-01-06T08:48:57.423Z,18.73
2019-01-06T08:49:56.537Z,8.60
2019-01-06T08:51:06.910Z,12.10
2019-01-06T08:52:04.598Z,9.60
2019-01-06T08:53:05.665Z,12.13
2019-01-06T08:54:18.894Z,13.37
2019-01-06T08:55:22.761Z,8.30
2019-01-06T08:56:17.830Z,13.63
2019-01-06T08:57:24.724Z,10.20
2019-01-06T08:58:25.752Z,10.07
2019-01-06T08:59:26.531Z,9.40
2019-01-06T09:00:19.871Z,22.63
2019-01-06T09:01:14.910Z,10.50
2019-01-06T09:02:18.703Z,19.83
2019-01-06T09:03:16.230Z,11.97
2019-01-06T09:04:09.595Z,19.70
2019-01-06T09:05:13.587Z,11.63
2019-01-06T09:06:14.341Z,12.00
2019-01-06T09:07:18.756Z,9.00
2019-01-06T09:08:31.662Z,11.27
2019-01-06T09:09:26.544Z,17.43
2019-01-06T09:10:18.269Z,17.30
2019-01-06T09:11:25.115Z,10.77
2019-01-06T09:12:43.250Z,10.77
2019-01-06T09:13:41.546Z,15.83
2019-01-06T09:14:40.660Z,11.17
2019-01-06T09:15:44.798Z,10.03
2019-01-06T09:16:38.172Z,13.13
2019-01-06T09:17:31.539Z,9.40
2019-01-06T09:18:44.589Z,10.60
2019-01-06T09:19:49.988Z,12.57
2019-01-06T09:20:41.756Z,13.50
2019-01-06T09:21:45.464Z,11.90
2019-01-06T09:22:49.479Z,10.17
2019-01-06T09:23:56.576Z,10.13
2019-01-06T09:25:06.421Z,15.33
2019-01-06T09:25:59.790Z,17.43
2019-01-06T09:26:53.413Z,11.03
2019-01-06T09:27:46.635Z,17.53
2019-01-06T09:28:41.851Z,14.50
2019-01-06T09:29:55.081Z,14.30
2019-01-06T09:30:56.015Z,13.87
2019-01-06T09:32:02.222Z,10.87
2019-01-06T09:33:02.811Z,20.00
2019-01-06T09:34:01.401Z,10.30
2019-01-06T09:34:59.067Z,9.33
2019-01-06T09:35:52.203Z,25.37
2019-01-06T09:36:55.893Z,15.27
2019-01-06T09:37:49.038Z,15.83
2019-01-06T09:38:47.287Z,18.53
2019-01-06T09:39:42.301Z,21.13
2019-01-06T09:40:55.256Z,20.50
2019-01-06T09:42:08.212Z,10.53
2019-01-06T09:43:12.143Z,19.67
2019-01-06T09:44:09.814Z,13.33
2019-01-06T09:44:58.502Z,12.77
2019-01-06T09:45:50.846Z,15.23
2019-01-06T09:46:48.438Z,13.60
2019-01-06T09:47:36.369Z,19.10
2019-01-06T09:48:46.183Z,13.00
2019-01-06T09:49:47.054Z,13.77
2019-01-06T09:50:50.605Z,12.57
2019-01-06T09:51:51.714Z,12.60
2019-01-06T09:52:52.950Z,15.87
2019-01-06T09:53:46.143Z,9.83
2019-01-06T09:54:47.671Z,10.80
2019-01-06T09:55:40.825Z,10.40
2019-01-06T09:56:34.051Z,15.60
2019-01-06T09:57:41.067Z,16.23
2019-01-06T09:58:36.133Z,13.80
2019-01-06T09:59:31.205Z,10.70
2019-01-06T10:00:29.466Z,14.13
2019-01-06T10:01:33.852Z,12.40
2019-01-06T10:02:28.930Z,8.70
2019-01-06T10:03:26.702Z,14.87
2019-01-06T10:04:21.765Z,13.90
2019-01-06T10:05:11.339Z,14.37
2019-01-06T10:06:04.808Z,13.63
2019-01-06T10:06:58.557Z,11.37
2019-01-06T10:07:51.919Z,13.03
2019-01-06T10:09:02.131Z,9.53
2019-01-06T10:10:12.109Z,17.73
2019-01-06T10:11:09.990Z,18.13
2019-01-06T10:12:20.708Z,12.43
2019-01-06T10:13:14.109Z,14.50
2019-01-06T10:14:07.415Z,9.97
2019-01-06T10:15:17.089Z,12.00
2019-01-06T10:16:10.390Z,10.30
2019-01-06T10:17:11.177Z,14.93
2019-01-06T10:18:15.035Z,7.97
2019-01-06T10:19:16.036Z,11.10
2019-01-06T10:20:16.797Z,8.07
2019-01-06T10:21:11.746Z,10.23
2019-01-06T10:22:04.925Z,8.20
2019-01-06T10:22:56.175Z,12.57
2019-01-06T10:23:51.182Z,11.00
2019-01-06T10:24:51.659Z,9.37
2019-01-06T10:25:59.302Z,12.10
2019-01-06T10:27:06.530Z,14.20
2019-01-06T10:28:19.528Z,19.70
2019-01-06T10:29:20.676Z,12.23
2019-01-06T10:30:23.728Z,9.00
2019-01-06T10:31:21.546Z,13.90
2019-01-06T10:32:25.823Z,10.73
2019-01-06T10:33:30.187Z,6.97
2019-01-06T10:34:21.486Z,10.17
2019-01-06T10:35:14.121Z,6.40
2019-01-06T10:36:07.458Z,11.97
2019-01-06T10:37:01.010Z,7.40
2019-01-06T10:37:54.508Z,12.93
2019-01-06T10:39:04.208Z,6.63
2019-01-06T10:39:59.330Z,6.20
2019-01-06T10:40:54.381Z,5.83
2019-01-06T10:41:58.147Z,14.50
2019-01-06T10:42:56.008Z,6.27
2019-01-06T10:43:58.691Z,8.17
2019-01-06T10:45:02.646Z,5.60
2019-01-06T10:45:57.713Z,5.47
2019-01-06T10:46:55.866Z,8.80
2019-01-06T10:47:49.247Z,4.67
2019-01-06T10:48:46.987Z,6.83
2019-01-06T10:51:08.008Z,6.50
2019-01-06T10:52:01.313Z,10.73
2019-01-06T10:52:54.417Z,11.00
2019-01-06T10:53:51.352Z,7.20
2019-01-06T10:55:01.241Z,9.37
2019-01-06T10:55:59.063Z,6.10
2019-01-06T10:56:52.227Z,17.20
2019-01-06T10:57:45.534Z,5.40
2019-01-06T10:58:48.493Z,5.67
2019-01-06T10:59:42.145Z,5.20
2019-01-06T11:00:38.657Z,5.77
2019-01-06T11:01:32.103Z,6.40
2019-01-06T11:02:29.868Z,6.57
2019-01-06T11:03:27.871Z,9.10
2019-01-06T11:04:31.854Z,18.60
2019-01-06T11:05:25.162Z,11.97
2019-01-06T11:06:18.574Z,6.77
2019-01-06T11:07:12.815Z,7.37
2019-01-06T11:08:13.177Z,9.73
2019-01-06T11:09:06.553Z,15.17
2019-01-06T11:09:59.886Z,9.23
2019-01-06T11:11:07.141Z,17.37
2019-01-06T11:12:17.099Z,16.93
2019-01-06T11:13:23.527Z,17.90
2019-01-06T11:14:24.254Z,9.30
2019-01-06T11:15:22.043Z,14.83
2019-01-06T11:16:19.566Z,11.97
2019-01-06T11:17:14.519Z,10.07
2019-01-06T11:18:15.232Z,15.57
2019-01-06T11:19:14.494Z,12.70
2019-01-06T11:20:18.464Z,10.03
2019-01-06T11:21:24.002Z,11.87
2019-01-06T11:22:19.236Z,14.73
2019-01-06T11:23:12.688Z,17.63
2019-01-06T11:24:06.002Z,19.43
2019-01-06T11:25:03.786Z,17.13
2019-01-06T11:25:57.029Z,23.13
2019-01-06T11:26:50.318Z,21.43
2019-01-06T11:27:43.557Z,20.53
2019-01-06T11:28:36.536Z,17.00
2019-01-06T11:29:42.374Z,14.43
2019-01-06T11:30:39.795Z,17.33
2019-01-06T11:31:46.747Z,11.07
2019-01-06T11:32:50.585Z,25.53
2019-01-06T11:33:52.629Z,12.63
2019-01-06T11:34:53.213Z,13.30
2019-01-06T11:35:46.325Z,15.33
2019-01-06T11:36:40.014Z,15.60
2019-01-06T11:37:33.603Z,14.20
2019-01-06T11:38:43.566Z,10.77
2019-01-06T11:39:41.477Z,17.07
2019-01-06T11:40:36.648Z,19.37
2019-01-06T11:41:30.317Z,21.30
2019-01-06T11:42:26.255Z,12.00
2019-01-06T11:43:21.271Z,13.63
2019-01-06T11:44:14.946Z,15.17
2019-01-06T11:45:20.809Z,12.60
2019-01-06T11:46:11.971Z,14.80
2019-01-06T11:47:05.202Z,13.87
2019-01-06T11:48:03.130Z,14.30
2019-01-06T11:48:56.229Z,12.90
2019-01-06T11:49:57.934Z,21.50
2019-01-06T11:50:52.911Z,9.17
2019-01-06T11:51:41.402Z,11.10
2019-01-06T11:52:34.818Z,12.27
2019-01-06T11:53:29.834Z,14.63
2019-01-06T11:54:21.202Z,12.77
2019-01-06T11:55:14.516Z,8.03
2019-01-06T11:56:15.369Z,11.70
2019-01-06T11:57:28.447Z,21.20
2019-01-06T11:58:12.422Z,12.43
2019-01-06T11:59:05.839Z,9.80
2019-01-06T12:00:06.632Z,17.10
2019-01-06T12:01:00.319Z,16.03
2019-01-06T12:02:04.248Z,20.03
2019-01-06T12:03:02.114Z,10.53
2019-01-06T12:04:12.210Z,8.30
2019-01-06T12:05:10.670Z,9.83
2019-01-06T12:06:04.123Z,10.83
2019-01-06T12:06:57.518Z,9.00
2019-01-06T12:07:46.761Z,9.83
2019-01-06T12:08:41.795Z,10.80
2019-01-06T12:09:36.828Z,13.73
2019-01-06T12:10:46.783Z,13.33
2019-01-06T12:11:39.905Z,14.80
2019-01-06T12:12:33.095Z,10.40
2019-01-06T12:13:34.042Z,11.07
2019-01-06T12:14:31.980Z,13.53
2019-01-06T12:15:35.872Z,12.93
2019-01-06T12:16:33.439Z,12.23
2019-01-06T12:17:31.202Z,11.40
2019-01-06T12:18:37.950Z,10.10
2019-01-06T12:19:38.933Z,18.50
2019-01-06T12:20:45.892Z,11.03
2019-01-06T12:21:40.891Z,14.60
2019-01-06T12:22:34.383Z,14.67
2019-01-06T12:23:38.410Z,20.50
2019-01-06T12:24:45.531Z,13.93
2019-01-06T12:25:40.659Z,20.10
2019-01-06T12:26:41.489Z,14.07
2019-01-06T12:27:25.095Z,16.10
2019-01-06T12:28:14.718Z,11.40
2019-01-06T12:29:08.121Z,15.47
2019-01-06T12:30:03.251Z,15.10
2019-01-06T12:31:13.155Z,15.53
2019-01-06T12:32:22.878Z,18.23
2019-01-06T12:33:28.639Z,33.17
2019-01-06T12:34:26.448Z,12.77
2019-01-06T12:35:24.335Z,16.60
2019-01-06T12:36:22.584Z,17.40
2019-01-06T12:37:20.748Z,17.57
2019-01-06T12:38:14.112Z,19.20
2019-01-06T12:39:21.160Z,25.73
2019-01-06T12:40:30.888Z,15.90
2019-01-06T12:41:41.233Z,10.43
2019-01-06T12:42:35.146Z,16.50
2019-01-06T12:43:48.139Z,17.47
2019-01-06T12:44:44.916Z,26.40